createdAt,value
2022-09-23T00:00:24.784Z,8.79
2022-09-23T00:03:29.103Z,8.75
2022-09-23T00:06:31.680Z,8.72
2022-09-23T00:09:34.743Z,8.77
2022-09-23T00:12:37.395Z,8.74
2022-09-23T00:15:40.331Z,8.75
2022-09-23T00:18:43.533Z,8.76
2022-09-23T00:21:46.257Z,8.72
2022-09-23T00:24:49.221Z,8.71
2022-09-23T00:27:52.070Z,8.65
2022-09-23T00:30:54.721Z,8.72
2022-09-23T00:34:01.688Z,8.73
2022-09-23T00:37:04.341Z,8.74
2022-09-23T00:40:08.946Z,8.75
2022-09-23T00:43:17.547Z,8.67
2022-09-23T00:46:40.463Z,8.61
2022-09-23T00:49:44.865Z,8.68
2022-09-23T00:52:49.157Z,8.64
2022-09-23T00:55:55.431Z,8.60
2022-09-23T00:58:58.731Z,8.50
2022-09-23T01:02:02.727Z,8.46
2022-09-23T01:05:07.463Z,8.29
2022-09-23T01:08:11.619Z,8.32
2022-09-23T01:11:23.606Z,8.29
2022-09-23T01:14:47.710Z,8.29
2022-09-23T01:18:15.230Z,8.24
2022-09-23T01:22:05.036Z,8.15
2022-09-23T01:25:40.839Z,8.09
2022-09-23T01:28:43.262Z,8.01
2022-09-23T01:31:55.306Z,7.99
2022-09-23T01:34:57.828Z,8.02
2022-09-23T01:38:06.547Z,8.01
2022-09-23T01:41:21.487Z,8.02
2022-09-23T01:44:30.957Z,8.00
2022-09-23T01:47:37.753Z,8.01
2022-09-23T01:50:58.860Z,7.89
2022-09-23T01:54:07.443Z,7.96
2022-09-23T01:57:18.865Z,7.95
2022-09-23T02:00:23.163Z,7.94
2022-09-23T02:03:32.385Z,7.95
2022-09-23T02:06:42.656Z,7.97
2022-09-23T02:09:49.468Z,8.00
2022-09-23T02:12:57.350Z,7.99
2022-09-23T02:16:04.996Z,7.76
2022-09-23T02:19:11.653Z,7.94
2022-09-23T02:22:24.105Z,7.93
2022-09-23T02:25:34.037Z,7.95
2022-09-23T02:28:57.374Z,7.92
2022-09-23T02:32:12.643Z,7.88
2022-09-23T02:35:18.144Z,7.78
2022-09-23T02:38:34.407Z,7.78
2022-09-23T02:41:52.092Z,7.68
2022-09-23T02:44:55.063Z,7.51
2022-09-23T02:48:04.031Z,7.43
2022-09-23T02:51:06.816Z,7.38
2022-09-23T02:54:14.959Z,7.36
2022-09-23T02:57:17.441Z,7.41
2022-09-23T03:00:20.610Z,7.26
2022-09-23T03:03:53.800Z,7.24
2022-09-23T03:07:02.563Z,7.19
2022-09-23T03:10:14.969Z,7.28
2022-09-23T03:13:48.068Z,7.34
2022-09-23T03:16:53.569Z,7.41
2022-09-23T03:20:34.248Z,7.49
2022-09-23T03:23:39.602Z,7.50
2022-09-23T03:26:45.800Z,7.44
2022-09-23T03:29:50.068Z,7.43
2022-09-23T03:32:53.332Z,7.36
2022-09-23T03:36:35.459Z,7.43
2022-09-23T03:40:03.255Z,7.32
2022-09-23T03:43:05.859Z,7.45
2022-09-23T03:46:08.750Z,7.47
2022-09-23T03:49:27.343Z,7.48
2022-09-23T03:52:30.340Z,7.50
2022-09-23T03:55:33.543Z,7.40
2022-09-23T03:58:36.329Z,7.43
2022-09-23T04:01:38.939Z,7.44
2022-09-23T04:04:41.975Z,7.46
2022-09-23T04:07:44.548Z,7.42
2022-09-23T04:10:49.798Z,7.47
2022-09-23T04:13:55.958Z,7.45
2022-09-23T04:16:58.982Z,7.54
2022-09-23T04:20:01.876Z,7.54
2022-09-23T04:23:04.840Z,7.52
2022-09-23T04:26:07.403Z,7.41
2022-09-23T04:29:11.495Z,7.47
2022-09-23T04:32:14.043Z,7.50
2022-09-23T04:35:17.117Z,7.56
2022-09-23T04:38:19.968Z,7.57
2022-09-23T04:41:23.066Z,7.57
2022-09-23T04:44:28.105Z,7.56
2022-09-23T04:47:32.164Z,7.61
2022-09-23T04:50:34.674Z,7.63
2022-09-23T04:53:39.903Z,7.65
2022-09-23T04:56:42.830Z,7.65
2022-09-23T04:59:47.128Z,7.58
2022-09-23T05:02:50.551Z,7.68
2022-09-23T05:05:54.633Z,7.72
2022-09-23T05:08:58.535Z,7.74
2022-09-23T05:12:02.132Z,7.68
2022-09-23T05:15:05.203Z,7.82
2022-09-23T05:18:07.967Z,7.73
2022-09-23T05:21:12.203Z,7.93
2022-09-23T05:24:16.723Z,9.02
2022-09-23T05:27:19.946Z,8.72
2022-09-23T05:30:22.914Z,8.66
2022-09-23T05:33:25.361Z,8.67
2022-09-23T05:36:32.124Z,8.67
2022-09-23T05:39:38.243Z,8.71
2022-09-23T05:42:41.220Z,8.72
2022-09-23T05:45:43.685Z,8.74
2022-09-23T05:48:47.391Z,8.69
2022-09-23T05:51:49.842Z,8.75
2022-09-23T05:54:52.718Z,8.73
2022-09-23T05:57:55.178Z,8.79
2022-09-23T06:00:58.046Z,8.89
2022-09-23T06:04:02.612Z,9.00
2022-09-23T06:07:05.476Z,9.07
2022-09-23T06:10:08.722Z,9.18
2022-09-23T06:13:11.990Z,9.26
2022-09-23T06:16:16.213Z,9.37
2022-09-23T06:19:19.271Z,9.35
2022-09-23T06:22:24.751Z,9.32
2022-09-23T06:25:27.209Z,9.47
2022-09-23T06:28:36.182Z,9.57
2022-09-23T06:31:41.243Z,9.63
2022-09-23T06:34:51.514Z,9.82
2022-09-23T06:37:54.983Z,9.92
2022-09-23T06:40:58.664Z,10.01
2022-09-23T06:44:01.307Z,10.18
2022-09-23T06:47:04.136Z,10.22
2022-09-23T06:50:07.715Z,10.01
2022-09-23T06:53:10.391Z,10.54
2022-09-23T06:56:12.950Z,10.72
2022-09-23T06:59:17.062Z,10.76
2022-09-23T07:02:19.691Z,10.96
2022-09-23T07:05:22.843Z,11.13
2022-09-23T07:08:27.263Z,11.30
2022-09-23T07:11:30.277Z,11.46
2022-09-23T07:14:32.861Z,11.59
2022-09-23T07:17:35.727Z,11.46
2022-09-23T07:20:38.415Z,11.68
2022-09-23T07:23:48.114Z,11.81
2022-09-23T07:26:50.575Z,12.12
2022-09-23T07:29:53.524Z,12.36
2022-09-23T07:32:56.074Z,12.53
2022-09-23T07:35:58.909Z,12.60
2022-09-23T07:39:03.404Z,12.76
2022-09-23T07:42:06.615Z,13.01
2022-09-23T07:45:09.333Z,13.13
2022-09-23T07:48:12.204Z,13.31
2022-09-23T07:51:20.417Z,13.49
2022-09-23T07:54:25.506Z,13.41
2022-09-23T07:57:27.983Z,13.60
2022-09-23T08:00:31.238Z,13.91
2022-09-23T08:03:35.118Z,14.21
2022-09-23T08:06:42.025Z,14.23
2022-09-23T08:09:45.426Z,14.45
2022-09-23T08:12:48.926Z,14.46
2022-09-23T08:15:55.325Z,14.70
2022-09-23T08:18:58.169Z,14.87
2022-09-23T08:22:00.938Z,15.01
2022-09-23T08:25:03.829Z,15.39
2022-09-23T08:28:07.214Z,15.51
2022-09-23T08:31:09.793Z,15.65
2022-09-23T08:34:13.342Z,15.93
2022-09-23T08:37:15.831Z,16.19
2022-09-23T08:40:19.116Z,16.13
2022-09-23T08:43:27.386Z,15.86
2022-09-23T08:46:37.693Z,16.39
2022-09-23T08:50:18.724Z,16.50
2022-09-23T08:53:26.234Z,16.52
2022-09-23T08:56:28.992Z,17.00
2022-09-23T08:59:37.186Z,17.50
2022-09-23T09:02:39.909Z,17.67
2022-09-23T09:05:50.884Z,17.57
2022-09-23T09:09:00.956Z,17.66
2022-09-23T09:12:52.864Z,18.19
2022-09-23T09:16:06.224Z,18.02
2022-09-23T09:19:17.167Z,18.19
2022-09-23T09:22:33.266Z,18.50
2022-09-23T09:25:49.543Z,18.43
2022-09-23T09:29:34.418Z,17.82
2022-09-23T09:33:04.931Z,17.85
2022-09-23T09:36:15.413Z,18.46
2022-09-23T09:39:21.857Z,18.54
2022-09-23T09:42:41.803Z,18.03
2022-09-23T09:46:17.600Z,17.69
2022-09-23T09:49:23.287Z,17.35
2022-09-23T09:52:28.815Z,16.97
2022-09-23T09:55:31.330Z,16.83
2022-09-23T09:58:41.660Z,16.68
2022-09-23T10:01:44.293Z,16.58
2022-09-23T10:04:55.347Z,16.31
2022-09-23T10:08:26.616Z,16.10
2022-09-23T10:11:30.005Z,15.65
2022-09-23T10:14:32.967Z,15.77
2022-09-23T10:17:36.368Z,16.03
2022-09-23T10:20:39.127Z,17.38
2022-09-23T10:23:44.772Z,16.95
2022-09-23T10:26:58.311Z,16.56
2022-09-23T10:30:06.213Z,16.38
2022-09-23T10:33:27.996Z,16.04
2022-09-23T10:36:32.719Z,15.85
2022-09-23T10:39:54.213Z,15.68
2022-09-23T10:43:53.571Z,15.91
2022-09-23T10:47:04.641Z,15.56
2022-09-23T10:50:20.785Z,15.47
2022-09-23T10:53:42.056Z,15.35
2022-09-23T10:57:28.315Z,15.37
2022-09-23T11:00:37.940Z,15.22
2022-09-23T11:03:52.274Z,15.16
2022-09-23T11:07:08.285Z,15.26
2022-09-23T11:10:45.465Z,15.59
2022-09-23T11:14:07.736Z,15.43
2022-09-23T11:17:51.744Z,15.34
2022-09-23T11:21:04.691Z,15.27
2022-09-23T11:24:12.194Z,16.69
2022-09-23T11:27:15.012Z,17.56
2022-09-23T11:30:21.168Z,17.38
2022-09-23T11:33:31.506Z,17.14
2022-09-23T11:36:41.574Z,16.63
2022-09-23T11:40:04.627Z,16.46
2022-09-23T11:43:18.762Z,16.22
2022-09-23T11:46:38.768Z,16.21
2022-09-23T11:49:48.732Z,16.14
2022-09-23T11:53:03.117Z,16.17
2022-09-23T11:56:12.675Z,17.21
2022-09-23T11:59:35.061Z,17.03
2022-09-23T12:03:18.515Z,16.94
2022-09-23T12:06:43.911Z,16.94
2022-09-23T12:10:03.616Z,16.71
2022-09-23T12:13:47.461Z,16.48
2022-09-23T12:16:56.098Z,16.26
2022-09-23T12:20:19.114Z,16.19
2022-09-23T12:23:27.729Z,16.05
2022-09-23T12:26:32.522Z,16.12
2022-09-23T12:29:35.315Z,15.97
2022-09-23T12:32:41.246Z,15.94
2022-09-23T12:35:45.809Z,15.83
2022-09-23T12:38:51.340Z,15.73
2022-09-23T12:41:58.749Z,15.61
2022-09-23T12:45:31.523Z,15.54
2022-09-23T12:48:48.153Z,15.46
2022-09-23T12:52:13.525Z,15.47
2022-09-23T12:55:24.590Z,15.54
2022-09-23T12:58:42.486Z,15.55
2022-09-23T13:01:45.135Z,15.55
2022-09-23T13:05:23.318Z,15.50
2022-09-23T13:08:29.118Z,15.46
2022-09-23T13:11:32.635Z,15.39
2022-09-23T13:14:37.864Z,15.41
2022-09-23T13:17:40.704Z,15.29
2022-09-23T13:20:43.163Z,15.32
2022-09-23T13:24:31.298Z,15.28
2022-09-23T13:27:34.242Z,15.27
2022-09-23T13:30:48.056Z,15.22
2022-09-23T13:33:54.595Z,15.54
2022-09-23T13:36:57.407Z,15.39
2022-09-23T13:40:24.014Z,15.32
2022-09-23T13:43:48.840Z,15.29
2022-09-23T13:46:54.553Z,15.24
2022-09-23T13:49:57.625Z,15.74
2022-09-23T13:53:04.108Z,15.57
2022-09-23T13:56:13.037Z,15.45
2022-09-23T13:59:21.731Z,15.37
2022-09-23T14:02:25.836Z,15.30
2022-09-23T14:05:35.491Z,15.30
2022-09-23T14:08:49.884Z,15.35
2022-09-23T14:11:53.480Z,15.35
2022-09-23T14:14:57.183Z,15.23
2022-09-23T14:18:06.377Z,15.32
2022-09-23T14:21:27.323Z,15.34
2022-09-23T14:24:30.111Z,15.35
2022-09-23T14:27:36.167Z,15.28
2022-09-23T14:30:39.065Z,15.26
2022-09-23T14:33:42.890Z,15.28
2022-09-23T14:37:08.822Z,15.22
2022-09-23T14:40:15.222Z,15.30
2022-09-23T14:43:28.607Z,15.32
2022-09-23T14:46:35.999Z,15.33
2022-09-23T14:49:58.759Z,15.37
2022-09-23T14:53:01.347Z,15.47
2022-09-23T14:56:07.154Z,15.57
2022-09-23T14:59:24.885Z,15.58
2022-09-23T15:02:39.319Z,15.46
2022-09-23T15:05:46.789Z,15.38
2022-09-23T15:08:54.619Z,15.37
2022-09-23T15:12:02.678Z,15.32
2022-09-23T15:15:06.112Z,15.32
2022-09-23T15:18:21.429Z,15.28
2022-09-23T15:21:25.886Z,15.24
2022-09-23T15:24:46.611Z,15.21
2022-09-23T15:28:25.243Z,15.17
2022-09-23T15:31:27.810Z,15.08
2022-09-23T15:34:31.948Z,14.98
2022-09-23T15:37:36.403Z,14.92
2022-09-23T15:40:40.446Z,14.94
2022-09-23T15:43:43.152Z,14.89
2022-09-23T15:46:47.073Z,14.78
2022-09-23T15:49:49.591Z,14.83
2022-09-23T15:52:52.450Z,14.67
2022-09-23T15:55:55.104Z,14.63
2022-09-23T15:58:58.053Z,14.66
2022-09-23T16:02:05.763Z,14.63
2022-09-23T16:05:26.640Z,14.54
2022-09-23T16:08:33.200Z,14.45
2022-09-23T16:11:38.258Z,14.40
2022-09-23T16:14:40.715Z,14.33
2022-09-23T16:17:44.795Z,14.31
2022-09-23T16:20:48.056Z,14.24
2022-09-23T16:23:51.507Z,14.19
2022-09-23T16:26:59.813Z,14.11
2022-09-23T16:30:03.280Z,14.06
2022-09-23T16:33:05.753Z,14.03
2022-09-23T16:36:14.028Z,14.81
2022-09-23T16:39:16.822Z,14.85
2022-09-23T16:42:19.654Z,14.46
2022-09-23T16:45:23.291Z,14.15
2022-09-23T16:48:26.104Z,14.03
2022-09-23T16:51:30.853Z,13.93
2022-09-23T16:54:37.341Z,14.86
2022-09-23T16:57:40.534Z,14.96
2022-09-23T17:01:01.602Z,15.06
2022-09-23T17:04:04.255Z,14.61
2022-09-23T17:07:07.066Z,14.17
2022-09-23T17:10:10.204Z,13.80
2022-09-23T17:13:15.741Z,13.68
2022-09-23T17:16:27.276Z,13.51
2022-09-23T17:19:30.184Z,13.35
2022-09-23T17:22:33.644Z,13.23
2022-09-23T17:25:36.444Z,13.19
2022-09-23T17:28:39.289Z,13.15
2022-09-23T17:31:42.729Z,12.98
2022-09-23T17:34:45.240Z,13.02
2022-09-23T17:37:48.060Z,13.00
2022-09-23T17:40:52.320Z,12.96
2022-09-23T17:43:57.159Z,12.89
2022-09-23T17:47:00.800Z,12.89
2022-09-23T17:50:04.025Z,12.83
2022-09-23T17:53:06.494Z,12.84
2022-09-23T17:56:20.024Z,12.86
2022-09-23T17:59:22.458Z,12.77
2022-09-23T18:02:25.579Z,12.76
2022-09-23T18:05:28.538Z,12.68
2022-09-23T18:08:31.348Z,12.67
2022-09-23T18:11:37.061Z,12.65
2022-09-23T18:14:39.754Z,12.66
2022-09-23T18:17:42.609Z,12.62
2022-09-23T18:20:45.129Z,12.63
2022-09-23T18:23:48.279Z,12.59
2022-09-23T18:26:51.072Z,12.56
2022-09-23T18:29:56.430Z,12.52
2022-09-23T18:32:59.825Z,12.48
2022-09-23T18:36:04.087Z,12.35
2022-09-23T18:39:07.002Z,12.50
2022-09-23T18:42:09.991Z,12.51
2022-09-23T18:45:12.602Z,12.50
2022-09-23T18:48:33.770Z,12.46
2022-09-23T18:51:38.686Z,12.34
2022-09-23T18:54:42.573Z,12.25
2022-09-23T18:57:47.808Z,12.02
2022-09-23T19:00:51.418Z,12.15
2022-09-23T19:03:58.416Z,12.11
2022-09-23T19:07:01.402Z,11.91
2022-09-23T19:10:04.484Z,11.93
2022-09-23T19:13:07.284Z,11.90
2022-09-23T19:16:16.695Z,11.77
2022-09-23T19:19:19.839Z,11.78
2022-09-23T19:22:22.350Z,11.82
2022-09-23T19:25:28.229Z,11.84
2022-09-23T19:28:31.054Z,11.88
2022-09-23T19:31:42.133Z,11.78
2022-09-23T19:34:45.845Z,11.92
2022-09-23T19:37:49.334Z,11.91
2022-09-23T19:40:52.204Z,11.88
2022-09-23T19:43:55.635Z,11.75
2022-09-23T19:46:58.169Z,11.85
2022-09-23T19:50:01.082Z,11.83
2022-09-23T19:53:07.473Z,11.82
2022-09-23T19:56:10.384Z,11.77
2022-09-23T19:59:17.764Z,11.77
2022-09-23T20:02:23.995Z,11.74
2022-09-23T20:05:30.050Z,11.71
2022-09-23T20:08:35.924Z,11.62
2022-09-23T20:11:38.875Z,11.51
2022-09-23T20:14:41.323Z,11.36
2022-09-23T20:17:44.438Z,11.22
2022-09-23T20:20:54.192Z,11.06
2022-09-23T20:23:57.901Z,10.95
2022-09-23T20:27:09.344Z,10.93
2022-09-23T20:30:12.446Z,10.88
2022-09-23T20:33:15.205Z,10.78
2022-09-23T20:36:18.482Z,10.77
2022-09-23T20:39:21.625Z,10.70
2022-09-23T20:42:24.518Z,10.66
2022-09-23T20:45:27.011Z,10.57
2022-09-23T20:48:30.919Z,10.52
2022-09-23T20:51:33.653Z,10.48
2022-09-23T20:54:38.868Z,10.48
2022-09-23T20:57:41.947Z,10.42
2022-09-23T21:00:44.982Z,10.37
2022-09-23T21:03:49.268Z,10.32
2022-09-23T21:06:52.181Z,10.25
2022-09-23T21:09:54.697Z,10.23
2022-09-23T21:12:57.698Z,10.21
2022-09-23T21:16:04.445Z,10.28
2022-09-23T21:19:08.035Z,10.38
2022-09-23T21:22:10.559Z,10.37
2022-09-23T21:25:27.355Z,10.49
2022-09-23T21:28:41.290Z,10.38
2022-09-23T21:31:44.214Z,10.37
2022-09-23T21:34:46.948Z,10.28
2022-09-23T21:37:49.781Z,10.18
2022-09-23T21:40:59.445Z,10.15
2022-09-23T21:44:04.619Z,10.14
2022-09-23T21:47:07.313Z,10.04
2022-09-23T21:50:10.251Z,9.98
2022-09-23T21:53:12.705Z,9.92
2022-09-23T21:56:21.704Z,9.83
2022-09-23T21:59:24.234Z,9.80
2022-09-23T22:02:27.755Z,9.75
2022-09-23T22:05:30.548Z,9.70
2022-09-23T22:08:36.824Z,9.65
2022-09-23T22:11:59.507Z,9.65
2022-09-23T22:15:02.074Z,9.64
2022-09-23T22:18:05.466Z,9.59
2022-09-23T22:21:08.165Z,9.56
2022-09-23T22:24:12.179Z,9.56
2022-09-23T22:27:16.963Z,9.55
2022-09-23T22:30:38.372Z,9.52
2022-09-23T22:33:40.851Z,9.47
2022-09-23T22:36:43.580Z,9.48
2022-09-23T22:39:46.301Z,9.46
2022-09-23T22:42:49.742Z,9.46
2022-09-23T22:45:52.200Z,9.41
2022-09-23T22:48:54.980Z,9.42
2022-09-23T22:51:57.543Z,9.41
2022-09-23T22:55:00.535Z,9.39
2022-09-23T22:58:21.206Z,9.35
2022-09-23T23:01:25.975Z,9.38
2022-09-23T23:04:29.836Z,9.36
2022-09-23T23:07:34.161Z,9.34
2022-09-23T23:10:37.372Z,9.27
2022-09-23T23:13:43.755Z,9.26
2022-09-23T23:16:47.004Z,9.20
2022-09-23T23:19:50.846Z,9.12
2022-09-23T23:22:53.441Z,9.18
2022-09-23T23:25:56.183Z,9.16
2022-09-23T23:28:59.688Z,9.14
2022-09-23T23:32:02.596Z,9.11
2022-09-23T23:35:06.111Z,9.09
2022-09-23T23:38:12.517Z,9.08
2022-09-23T23:41:17.292Z,9.07
2022-09-23T23:44:20.040Z,9.09
2022-09-23T23:47:23.376Z,9.07
2022-09-23T23:50:26.502Z,8.69
2022-09-23T23:53:30.840Z,9.02
2022-09-23T23:56:33.584Z,9.00
2022-09-23T23:59:36.003Z,8.97
